sensor_id;sensor_type;location;lat;lon;timestamp;temperature;humidity
6106;DHT22;3083;51.508;7.966;2024-03-08T00:00:59;1.20;99.90
6106;DHT22;3083;51.508;7.966;2024-03-08T00:03:27;1.20;99.90
6106;DHT22;3083;51.508;7.966;2024-03-08T00:05:54;1.30;99.90
6106;DHT22;3083;51.508;7.966;2024-03-08T00:08:22;1.30;99.90
6106;DHT22;3083;51.508;7.966;2024-03-08T00:10:50;1.40;99.90
6106;DHT22;3083;51.508;7.966;2024-03-08T00:13:18;1.50;99.90
6106;DHT22;3083;51.508;7.966;2024-03-08T00:15:45;1.50;99.90
6106;DHT22;3083;51.508;7.966;2024-03-08T00:18:12;1.40;99.90
6106;DHT22;3083;51.508;7.966;2024-03-08T00:20:40;1.40;99.90
6106;DHT22;3083;51.508;7.966;2024-03-08T00:23:07;1.50;99.90
6106;DHT22;3083;51.508;7.966;2024-03-08T00:25:36;1.40;99.90
6106;DHT22;3083;51.508;7.966;2024-03-08T00:28:04;1.50;99.90
6106;DHT22;3083;51.508;7.966;2024-03-08T00:30:31;1.50;99.90
6106;DHT22;3083;51.508;7.966;2024-03-08T00:32:58;1.50;99.90
6106;DHT22;3083;51.508;7.966;2024-03-08T00:35:25;1.50;99.90
6106;DHT22;3083;51.508;7.966;2024-03-08T00:37:54;1.50;99.90
6106;DHT22;3083;51.508;7.966;2024-03-08T00:40:22;1.50;99.90
6106;DHT22;3083;51.508;7.966;2024-03-08T00:42:49;1.50;99.90
6106;DHT22;3083;51.508;7.966;2024-03-08T00:45:16;1.50;99.90
6106;DHT22;3083;51.508;7.966;2024-03-08T00:47:43;1.50;99.90
6106;DHT22;3083;51.508;7.966;2024-03-08T00:50:10;1.40;99.90
6106;DHT22;3083;51.508;7.966;2024-03-08T00:52:38;1.40;99.90
6106;DHT22;3083;51.508;7.966;2024-03-08T00:55:07;1.40;99.90
6106;DHT22;3083;51.508;7.966;2024-03-08T00:57:36;1.40;99.90
6106;DHT22;3083;51.508;7.966;2024-03-08T01:00:05;1.30;99.90
6106;DHT22;3083;51.508;7.966;2024-03-08T01:02:35;1.30;99.90
6106;DHT22;3083;51.508;7.966;2024-03-08T01:05:02;1.20;99.90
6106;DHT22;3083;51.508;7.966;2024-03-08T01:07:29;1.20;99.90
6106;DHT22;3083;51.508;7.966;2024-03-08T01:09:56;1.20;99.90
6106;DHT22;3083;51.508;7.966;2024-03-08T01:12:24;1.20;99.90
6106;DHT22;3083;51.508;7.966;2024-03-08T01:14:51;1.10;99.90
6106;DHT22;3083;51.508;7.966;2024-03-08T01:17:18;1.00;99.90
6106;DHT22;3083;51.508;7.966;2024-03-08T01:19:45;0.90;99.90
6106;DHT22;3083;51.508;7.966;2024-03-08T01:22:12;0.90;99.90
6106;DHT22;3083;51.508;7.966;2024-03-08T01:24:39;0.80;99.90
6106;DHT22;3083;51.508;7.966;2024-03-08T01:27:06;0.70;99.90
6106;DHT22;3083;51.508;7.966;2024-03-08T01:29:36;0.60;99.90
6106;DHT22;3083;51.508;7.966;2024-03-08T01:32:03;0.50;99.90
6106;DHT22;3083;51.508;7.966;2024-03-08T01:34:32;0.50;99.90
6106;DHT22;3083;51.508;7.966;2024-03-08T01:36:59;0.40;99.90
6106;DHT22;3083;51.508;7.966;2024-03-08T01:39:26;0.30;99.90
6106;DHT22;3083;51.508;7.966;2024-03-08T01:41:53;0.20;99.90
6106;DHT22;3083;51.508;7.966;2024-03-08T01:44:20;0.20;99.90
6106;DHT22;3083;51.508;7.966;2024-03-08T01:46:50;0.30;99.90
6106;DHT22;3083;51.508;7.966;2024-03-08T01:49:18;0.30;99.90
6106;DHT22;3083;51.508;7.966;2024-03-08T01:51:47;0.30;99.90
6106;DHT22;3083;51.508;7.966;2024-03-08T01:54:16;0.40;99.90
6106;DHT22;3083;51.508;7.966;2024-03-08T01:56:43;0.40;99.90
6106;DHT22;3083;51.508;7.966;2024-03-08T01:59:10;0.40;99.90
6106;DHT22;3083;51.508;7.966;2024-03-08T02:01:37;0.50;99.90
6106;DHT22;3083;51.508;7.966;2024-03-08T02:04:06;0.50;99.90
6106;DHT22;3083;51.508;7.966;2024-03-08T02:06:33;0.50;99.90
6106;DHT22;3083;51.508;7.966;2024-03-08T02:09:00;0.50;99.90
6106;DHT22;3083;51.508;7.966;2024-03-08T02:11:31;0.60;99.90
6106;DHT22;3083;51.508;7.966;2024-03-08T02:13:58;0.50;99.90
6106;DHT22;3083;51.508;7.966;2024-03-08T02:16:25;0.50;99.90
6106;DHT22;3083;51.508;7.966;2024-03-08T02:18:53;0.60;99.90
6106;DHT22;3083;51.508;7.966;2024-03-08T02:21:21;0.60;99.90
6106;DHT22;3083;51.508;7.966;2024-03-08T02:23:48;0.50;99.90
6106;DHT22;3083;51.508;7.966;2024-03-08T02:26:17;0.40;99.90
6106;DHT22;3083;51.508;7.966;2024-03-08T02:28:45;0.40;99.90
6106;DHT22;3083;51.508;7.966;2024-03-08T02:31:12;0.40;99.90
6106;DHT22;3083;51.508;7.966;2024-03-08T02:33:39;0.40;99.90
6106;DHT22;3083;51.508;7.966;2024-03-08T02:36:06;0.40;99.90
6106;DHT22;3083;51.508;7.966;2024-03-08T02:38:35;0.40;99.90
6106;DHT22;3083;51.508;7.966;2024-03-08T02:41:03;0.40;99.90
6106;DHT22;3083;51.508;7.966;2024-03-08T02:43:30;0.40;99.90
6106;DHT22;3083;51.508;7.966;2024-03-08T02:45:57;0.40;99.90
6106;DHT22;3083;51.508;7.966;2024-03-08T02:48:25;0.40;99.90
6106;DHT22;3083;51.508;7.966;2024-03-08T02:50:52;0.40;99.90
6106;DHT22;3083;51.508;7.966;2024-03-08T02:53:19;0.40;99.90
6106;DHT22;3083;51.508;7.966;2024-03-08T02:55:47;0.30;99.90
6106;DHT22;3083;51.508;7.966;2024-03-08T02:58:15;0.30;99.90
6106;DHT22;3083;51.508;7.966;2024-03-08T03:00:42;0.20;99.90
6106;DHT22;3083;51.508;7.966;2024-03-08T03:03:10;0.20;99.90
6106;DHT22;3083;51.508;7.966;2024-03-08T03:05:37;0.10;99.90
6106;DHT22;3083;51.508;7.966;2024-03-08T03:08:04;0.10;99.90
6106;DHT22;3083;51.508;7.966;2024-03-08T03:10:34;0.10;99.90
6106;DHT22;3083;51.508;7.966;2024-03-08T03:13:03;0.10;99.90
6106;DHT22;3083;51.508;7.966;2024-03-08T03:15:31;0.10;99.90
6106;DHT22;3083;51.508;7.966;2024-03-08T03:17:59;0.00;99.90
6106;DHT22;3083;51.508;7.966;2024-03-08T03:20:26;0.00;99.90
6106;DHT22;3083;51.508;7.966;2024-03-08T03:22:58;0.10;99.90
6106;DHT22;3083;51.508;7.966;2024-03-08T03:25:27;0.00;99.90
6106;DHT22;3083;51.508;7.966;2024-03-08T03:27:59;0.00;99.90
6106;DHT22;3083;51.508;7.966;2024-03-08T03:30:27;0.10;99.90
6106;DHT22;3083;51.508;7.966;2024-03-08T03:32:59;0.10;99.90
6106;DHT22;3083;51.508;7.966;2024-03-08T03:35:26;0.10;99.90
6106;DHT22;3083;51.508;7.966;2024-03-08T03:37:53;0.10;99.90
6106;DHT22;3083;51.508;7.966;2024-03-08T03:40:28;0.10;99.90
6106;DHT22;3083;51.508;7.966;2024-03-08T03:42:55;0.20;99.90
6106;DHT22;3083;51.508;7.966;2024-03-08T03:45:22;0.10;99.90
6106;DHT22;3083;51.508;7.966;2024-03-08T03:47:50;0.10;99.90
6106;DHT22;3083;51.508;7.966;2024-03-08T03:50:18;0.10;99.90
6106;DHT22;3083;51.508;7.966;2024-03-08T03:52:45;0.00;99.90
6106;DHT22;3083;51.508;7.966;2024-03-08T03:55:12;0.00;99.90
6106;DHT22;3083;51.508;7.966;2024-03-08T03:57:40;0.00;99.90
6106;DHT22;3083;51.508;7.966;2024-03-08T04:00:07;0.00;99.90
6106;DHT22;3083;51.508;7.966;2024-03-08T04:02:36;0.00;99.90
6106;DHT22;3083;51.508;7.966;2024-03-08T04:05:06;0.00;99.90
6106;DHT22;3083;51.508;7.966;2024-03-08T04:07:33;0.00;99.90
6106;DHT22;3083;51.508;7.966;2024-03-08T04:10:00;0.00;99.90
6106;DHT22;3083;51.508;7.966;2024-03-08T04:12:27;0.00;99.90
6106;DHT22;3083;51.508;7.966;2024-03-08T04:14:55;0.00;99.90
6106;DHT22;3083;51.508;7.966;2024-03-08T04:17:22;0.10;99.90
6106;DHT22;3083;51.508;7.966;2024-03-08T04:19:50;0.10;99.90
6106;DHT22;3083;51.508;7.966;2024-03-08T04:22:19;0.20;99.90
6106;DHT22;3083;51.508;7.966;2024-03-08T04:24:46;0.20;99.90
6106;DHT22;3083;51.508;7.966;2024-03-08T04:27:13;0.20;99.90
6106;DHT22;3083;51.508;7.966;2024-03-08T04:29:40;0.20;99.90
6106;DHT22;3083;51.508;7.966;2024-03-08T04:32:08;0.20;99.90
6106;DHT22;3083;51.508;7.966;2024-03-08T04:34:35;0.20;99.90
6106;DHT22;3083;51.508;7.966;2024-03-08T04:37:02;0.20;99.90
6106;DHT22;3083;51.508;7.966;2024-03-08T04:39:31;0.10;99.90
6106;DHT22;3083;51.508;7.966;2024-03-08T04:42:00;0.10;99.90
6106;DHT22;3083;51.508;7.966;2024-03-08T04:44:29;0.10;99.90
6106;DHT22;3083;51.508;7.966;2024-03-08T04:46:57;0.10;99.90
6106;DHT22;3083;51.508;7.966;2024-03-08T04:49:24;0.10;99.90
6106;DHT22;3083;51.508;7.966;2024-03-08T04:51:51;0.10;99.90
6106;DHT22;3083;51.508;7.966;2024-03-08T04:54:18;0.00;99.90
6106;DHT22;3083;51.508;7.966;2024-03-08T04:56:46;-0.10;99.90
6106;DHT22;3083;51.508;7.966;2024-03-08T04:59:13;-0.20;99.90
6106;DHT22;3083;51.508;7.966;2024-03-08T05:01:40;-0.20;99.90
6106;DHT22;3083;51.508;7.966;2024-03-08T05:04:07;-0.30;99.90
6106;DHT22;3083;51.508;7.966;2024-03-08T05:06:34;-0.40;99.90
6106;DHT22;3083;51.508;7.966;2024-03-08T05:09:01;-0.40;99.90
6106;DHT22;3083;51.508;7.966;2024-03-08T05:11:39;-0.50;99.90
6106;DHT22;3083;51.508;7.966;2024-03-08T05:14:07;-0.50;99.90
6106;DHT22;3083;51.508;7.966;2024-03-08T05:16:34;-0.40;99.90
6106;DHT22;3083;51.508;7.966;2024-03-08T05:19:01;-0.50;99.90
6106;DHT22;3083;51.508;7.966;2024-03-08T05:21:28;-0.50;99.90
6106;DHT22;3083;51.508;7.966;2024-03-08T05:23:55;-0.40;99.90
6106;DHT22;3083;51.508;7.966;2024-03-08T05:26:22;-0.40;99.90
6106;DHT22;3083;51.508;7.966;2024-03-08T05:28:49;-0.30;99.90
6106;DHT22;3083;51.508;7.966;2024-03-08T05:31:19;-0.40;99.90
6106;DHT22;3083;51.508;7.966;2024-03-08T05:33:48;-0.40;99.90
6106;DHT22;3083;51.508;7.966;2024-03-08T05:36:15;-0.30;99.90
6106;DHT22;3083;51.508;7.966;2024-03-08T05:38:42;-0.40;99.90
6106;DHT22;3083;51.508;7.966;2024-03-08T05:41:09;-0.40;99.90
6106;DHT22;3083;51.508;7.966;2024-03-08T05:43:37;-0.40;99.90
6106;DHT22;3083;51.508;7.966;2024-03-08T05:46:04;-0.40;99.90
6106;DHT22;3083;51.508;7.966;2024-03-08T05:48:32;-0.40;99.90
6106;DHT22;3083;51.508;7.966;2024-03-08T05:51:00;-0.40;99.90
6106;DHT22;3083;51.508;7.966;2024-03-08T05:53:27;-0.40;99.90
6106;DHT22;3083;51.508;7.966;2024-03-08T05:55:57;-0.30;99.90
6106;DHT22;3083;51.508;7.966;2024-03-08T05:58:24;-0.30;99.90
6106;DHT22;3083;51.508;7.966;2024-03-08T06:00:51;-0.20;99.90
6106;DHT22;3083;51.508;7.966;2024-03-08T06:03:18;-0.20;99.90
6106;DHT22;3083;51.508;7.966;2024-03-08T06:05:49;-0.20;99.90
6106;DHT22;3083;51.508;7.966;2024-03-08T06:08:16;-0.20;99.90
6106;DHT22;3083;51.508;7.966;2024-03-08T06:10:44;-0.20;99.90
6106;DHT22;3083;51.508;7.966;2024-03-08T06:13:11;-0.20;99.90
6106;DHT22;3083;51.508;7.966;2024-03-08T06:15:38;-0.20;99.90
6106;DHT22;3083;51.508;7.966;2024-03-08T06:18:05;-0.10;99.90
6106;DHT22;3083;51.508;7.966;2024-03-08T06:20:36;-0.10;99.90
6106;DHT22;3083;51.508;7.966;2024-03-08T06:23:04;0.00;99.90
6106;DHT22;3083;51.508;7.966;2024-03-08T06:25:31;0.00;99.90
6106;DHT22;3083;51.508;7.966;2024-03-08T06:28:00;0.10;99.90
6106;DHT22;3083;51.508;7.966;2024-03-08T06:30:27;0.10;99.90
6106;DHT22;3083;51.508;7.966;2024-03-08T06:32:54;0.10;99.90
6106;DHT22;3083;51.508;7.966;2024-03-08T06:35:21;0.20;99.90
6106;DHT22;3083;51.508;7.966;2024-03-08T06:37:48;0.20;99.90
6106;DHT22;3083;51.508;7.966;2024-03-08T06:40:16;0.20;99.90
6106;DHT22;3083;51.508;7.966;2024-03-08T06:42:43;0.30;99.90
6106;DHT22;3083;51.508;7.966;2024-03-08T06:45:12;0.30;99.90
6106;DHT22;3083;51.508;7.966;2024-03-08T06:47:44;0.30;99.90
6106;DHT22;3083;51.508;7.966;2024-03-08T06:50:11;0.40;99.90
6106;DHT22;3083;51.508;7.966;2024-03-08T06:52:40;0.50;99.90
6106;DHT22;3083;51.508;7.966;2024-03-08T06:55:08;0.70;99.90
6106;DHT22;3083;51.508;7.966;2024-03-08T06:57:38;1.00;99.90
6106;DHT22;3083;51.508;7.966;2024-03-08T07:00:07;1.30;99.90
6106;DHT22;3083;51.508;7.966;2024-03-08T07:02:35;1.50;99.90
6106;DHT22;3083;51.508;7.966;2024-03-08T07:05:03;1.80;99.90
6106;DHT22;3083;51.508;7.966;2024-03-08T07:07:30;2.00;99.90
6106;DHT22;3083;51.508;7.966;2024-03-08T07:09:59;2.20;99.90
6106;DHT22;3083;51.508;7.966;2024-03-08T07:12:26;2.40;99.90
6106;DHT22;3083;51.508;7.966;2024-03-08T07:14:54;2.60;99.90
6106;DHT22;3083;51.508;7.966;2024-03-08T07:17:21;2.70;99.90
6106;DHT22;3083;51.508;7.966;2024-03-08T07:19:50;2.90;99.90
6106;DHT22;3083;51.508;7.966;2024-03-08T07:22:17;3.10;99.90
6106;DHT22;3083;51.508;7.966;2024-03-08T07:24:44;3.30;99.90
6106;DHT22;3083;51.508;7.966;2024-03-08T07:27:30;3.50;99.90
6106;DHT22;3083;51.508;7.966;2024-03-08T07:29:58;3.70;99.90
6106;DHT22;3083;51.508;7.966;2024-03-08T07:32:26;3.80;99.90
6106;DHT22;3083;51.508;7.966;2024-03-08T07:34:55;4.00;99.90
6106;DHT22;3083;51.508;7.966;2024-03-08T07:37:22;4.10;99.90
6106;DHT22;3083;51.508;7.966;2024-03-08T07:39:49;4.20;99.90
6106;DHT22;3083;51.508;7.966;2024-03-08T07:42:16;4.20;99.90
6106;DHT22;3083;51.508;7.966;2024-03-08T07:44:43;4.30;99.90
6106;DHT22;3083;51.508;7.966;2024-03-08T07:47:12;4.30;99.90
6106;DHT22;3083;51.508;7.966;2024-03-08T07:49:39;4.40;99.90
6106;DHT22;3083;51.508;7.966;2024-03-08T07:52:06;4.50;99.90
6106;DHT22;3083;51.508;7.966;2024-03-08T07:54:33;4.60;99.90
6106;DHT22;3083;51.508;7.966;2024-03-08T07:57:02;4.60;99.90
6106;DHT22;3083;51.508;7.966;2024-03-08T07:59:30;4.70;99.90
6106;DHT22;3083;51.508;7.966;2024-03-08T08:01:57;4.80;99.90
6106;DHT22;3083;51.508;7.966;2024-03-08T08:04:26;4.80;99.90
6106;DHT22;3083;51.508;7.966;2024-03-08T08:06:53;4.80;99.90
6106;DHT22;3083;51.508;7.966;2024-03-08T08:09:21;4.80;99.90
6106;DHT22;3083;51.508;7.966;2024-03-08T08:11:54;4.90;99.90
6106;DHT22;3083;51.508;7.966;2024-03-08T08:14:21;5.00;99.90
6106;DHT22;3083;51.508;7.966;2024-03-08T08:16:48;5.20;99.90
6106;DHT22;3083;51.508;7.966;2024-03-08T08:19:18;5.30;99.90
6106;DHT22;3083;51.508;7.966;2024-03-08T08:21:46;5.40;99.90
6106;DHT22;3083;51.508;7.966;2024-03-08T08:24:15;5.40;99.90
6106;DHT22;3083;51.508;7.966;2024-03-08T08:26:42;5.30;99.90
6106;DHT22;3083;51.508;7.966;2024-03-08T08:29:10;5.40;99.90
6106;DHT22;3083;51.508;7.966;2024-03-08T08:31:36;5.40;99.90
6106;DHT22;3083;51.508;7.966;2024-03-08T08:34:03;5.40;99.90
6106;DHT22;3083;51.508;7.966;2024-03-08T08:36:31;5.50;99.90
6106;DHT22;3083;51.508;7.966;2024-03-08T08:39:01;5.50;99.90
6106;DHT22;3083;51.508;7.966;2024-03-08T08:41:28;5.60;99.90
6106;DHT22;3083;51.508;7.966;2024-03-08T08:43:55;5.60;99.90
6106;DHT22;3083;51.508;7.966;2024-03-08T08:46:23;5.70;99.90
6106;DHT22;3083;51.508;7.966;2024-03-08T08:48:50;5.70;99.90
6106;DHT22;3083;51.508;7.966;2024-03-08T08:51:17;5.80;99.90
6106;DHT22;3083;51.508;7.966;2024-03-08T08:53:45;5.90;99.90
6106;DHT22;3083;51.508;7.966;2024-03-08T08:56:14;6.10;99.90
6106;DHT22;3083;51.508;7.966;2024-03-08T08:58:41;6.20;99.90
6106;DHT22;3083;51.508;7.966;2024-03-08T09:01:09;6.30;99.90
6106;DHT22;3083;51.508;7.966;2024-03-08T09:03:37;6.40;99.90
6106;DHT22;3083;51.508;7.966;2024-03-08T09:06:06;6.40;99.90
6106;DHT22;3083;51.508;7.966;2024-03-08T09:08:35;6.40;99.90
6106;DHT22;3083;51.508;7.966;2024-03-08T09:11:02;6.60;99.90
6106;DHT22;3083;51.508;7.966;2024-03-08T09:13:31;6.80;99.90
6106;DHT22;3083;51.508;7.966;2024-03-08T09:15:59;6.90;99.90
6106;DHT22;3083;51.508;7.966;2024-03-08T09:18:26;6.90;99.90
6106;DHT22;3083;51.508;7.966;2024-03-08T09:20:53;7.10;99.90
6106;DHT22;3083;51.508;7.966;2024-03-08T09:23:20;7.20;99.90
6106;DHT22;3083;51.508;7.966;2024-03-08T09:25:47;7.30;99.90
6106;DHT22;3083;51.508;7.966;2024-03-08T09:28:14;7.40;99.90
6106;DHT22;3083;51.508;7.966;2024-03-08T09:30:43;7.50;99.90
6106;DHT22;3083;51.508;7.966;2024-03-08T09:33:10;7.60;99.90
6106;DHT22;3083;51.508;7.966;2024-03-08T09:35:37;7.50;99.90
6106;DHT22;3083;51.508;7.966;2024-03-08T09:38:04;7.50;99.90
6106;DHT22;3083;51.508;7.966;2024-03-08T09:40:31;7.50;99.90
6106;DHT22;3083;51.508;7.966;2024-03-08T09:42:58;7.70;99.90
6106;DHT22;3083;51.508;7.966;2024-03-08T09:45:25;7.70;99.90
6106;DHT22;3083;51.508;7.966;2024-03-08T09:47:54;7.90;99.90
6106;DHT22;3083;51.508;7.966;2024-03-08T09:50:21;7.90;99.90
6106;DHT22;3083;51.508;7.966;2024-03-08T09:52:49;8.00;99.90
6106;DHT22;3083;51.508;7.966;2024-03-08T09:55:16;8.20;99.90
6106;DHT22;3083;51.508;7.966;2024-03-08T09:57:48;8.30;99.90
6106;DHT22;3083;51.508;7.966;2024-03-08T10:00:29;8.60;99.90
6106;DHT22;3083;51.508;7.966;2024-03-08T10:03:00;8.80;99.90
6106;DHT22;3083;51.508;7.966;2024-03-08T10:05:27;8.90;99.90
6106;DHT22;3083;51.508;7.966;2024-03-08T10:07:54;9.10;99.90
6106;DHT22;3083;51.508;7.966;2024-03-08T10:10:21;9.40;99.90
6106;DHT22;3083;51.508;7.966;2024-03-08T10:12:48;9.60;99.90
6106;DHT22;3083;51.508;7.966;2024-03-08T10:15:16;9.70;99.90
6106;DHT22;3083;51.508;7.966;2024-03-08T10:17:43;9.70;99.90
6106;DHT22;3083;51.508;7.966;2024-03-08T10:20:15;9.70;99.90
6106;DHT22;3083;51.508;7.966;2024-03-08T10:22:43;9.70;99.90
6106;DHT22;3083;51.508;7.966;2024-03-08T10:25:10;9.70;99.90
6106;DHT22;3083;51.508;7.966;2024-03-08T10:27:38;9.70;99.90
6106;DHT22;3083;51.508;7.966;2024-03-08T10:30:10;9.80;99.90
6106;DHT22;3083;51.508;7.966;2024-03-08T10:32:39;9.90;99.90
6106;DHT22;3083;51.508;7.966;2024-03-08T10:35:07;10.00;99.90
6106;DHT22;3083;51.508;7.966;2024-03-08T10:37:44;10.00;99.90
6106;DHT22;3083;51.508;7.966;2024-03-08T10:40:16;10.00;99.90
6106;DHT22;3083;51.508;7.966;2024-03-08T10:42:51;10.10;99.90
6106;DHT22;3083;51.508;7.966;2024-03-08T10:45:26;10.30;99.90
6106;DHT22;3083;51.508;7.966;2024-03-08T10:48:09;10.30;99.90
6106;DHT22;3083;51.508;7.966;2024-03-08T10:50:38;10.20;99.90
6106;DHT22;3083;51.508;7.966;2024-03-08T10:53:08;10.30;99.90
6106;DHT22;3083;51.508;7.966;2024-03-08T10:55:40;10.20;99.90
6106;DHT22;3083;51.508;7.966;2024-03-08T10:58:07;10.10;99.90
6106;DHT22;3083;51.508;7.966;2024-03-08T11:00:34;10.10;99.90
6106;DHT22;3083;51.508;7.966;2024-03-08T11:03:03;10.10;99.90
6106;DHT22;3083;51.508;7.966;2024-03-08T11:05:37;10.10;99.90
6106;DHT22;3083;51.508;7.966;2024-03-08T11:08:16;10.10;99.90
6106;DHT22;3083;51.508;7.966;2024-03-08T11:10:48;10.20;99.90
6106;DHT22;3083;51.508;7.966;2024-03-08T11:13:41;10.20;99.90
6106;DHT22;3083;51.508;7.966;2024-03-08T11:16:09;10.20;99.90
6106;DHT22;3083;51.508;7.966;2024-03-08T11:18:36;10.30;99.90
6106;DHT22;3083;51.508;7.966;2024-03-08T11:21:04;10.40;99.90
6106;DHT22;3083;51.508;7.966;2024-03-08T11:23:35;10.40;99.90
6106;DHT22;3083;51.508;7.966;2024-03-08T11:26:01;10.40;99.90
6106;DHT22;3083;51.508;7.966;2024-03-08T11:28:33;10.40;99.90
6106;DHT22;3083;51.508;7.966;2024-03-08T11:31:22;10.50;99.90
6106;DHT22;3083;51.508;7.966;2024-03-08T11:33:50;10.60;99.90
6106;DHT22;3083;51.508;7.966;2024-03-08T11:36:21;10.80;99.90
6106;DHT22;3083;51.508;7.966;2024-03-08T11:38:51;10.90;99.90
6106;DHT22;3083;51.508;7.966;2024-03-08T11:41:22;11.00;99.90
6106;DHT22;3083;51.508;7.966;2024-03-08T11:44:01;11.20;99.90
6106;DHT22;3083;51.508;7.966;2024-03-08T11:46:31;11.30;99.90
6106;DHT22;3083;51.508;7.966;2024-03-08T11:49:00;11.30;99.90
6106;DHT22;3083;51.508;7.966;2024-03-08T11:51:29;11.20;99.90
6106;DHT22;3083;51.508;7.966;2024-03-08T11:53:57;11.20;99.90
6106;DHT22;3083;51.508;7.966;2024-03-08T11:56:24;11.20;99.90
6106;DHT22;3083;51.508;7.966;2024-03-08T11:58:54;11.20;99.90
6106;DHT22;3083;51.508;7.966;2024-03-08T12:01:21;11.10;99.90
6106;DHT22;3083;51.508;7.966;2024-03-08T12:03:53;11.10;99.90
6106;DHT22;3083;51.508;7.966;2024-03-08T12:06:20;11.00;99.90
6106;DHT22;3083;51.508;7.966;2024-03-08T12:08:47;10.90;99.90
6106;DHT22;3083;51.508;7.966;2024-03-08T12:11:17;10.80;99.90
6106;DHT22;3083;51.508;7.966;2024-03-08T12:13:48;10.70;99.90
6106;DHT22;3083;51.508;7.966;2024-03-08T12:16:17;10.60;99.90
6106;DHT22;3083;51.508;7.966;2024-03-08T12:18:45;10.60;99.90
6106;DHT22;3083;51.508;7.966;2024-03-08T12:21:13;10.60;99.90
6106;DHT22;3083;51.508;7.966;2024-03-08T12:23:44;10.70;99.90
6106;DHT22;3083;51.508;7.966;2024-03-08T12:26:11;10.70;99.90
6106;DHT22;3083;51.508;7.966;2024-03-08T12:28:40;10.70;99.90
6106;DHT22;3083;51.508;7.966;2024-03-08T12:31:08;10.60;99.90
6106;DHT22;3083;51.508;7.966;2024-03-08T12:33:37;10.60;99.90
6106;DHT22;3083;51.508;7.966;2024-03-08T12:36:14;10.60;99.90
6106;DHT22;3083;51.508;7.966;2024-03-08T12:38:44;10.60;99.90
6106;DHT22;3083;51.508;7.966;2024-03-08T12:41:13;10.50;99.90
6106;DHT22;3083;51.508;7.966;2024-03-08T12:43:42;10.30;99.90
6106;DHT22;3083;51.508;7.966;2024-03-08T12:46:14;10.30;99.90
6106;DHT22;3083;51.508;7.966;2024-03-08T12:48:41;10.30;99.90
6106;DHT22;3083;51.508;7.966;2024-03-08T12:51:13;10.30;99.90
6106;DHT22;3083;51.508;7.966;2024-03-08T12:53:41;10.40;99.90
6106;DHT22;3083;51.508;7.966;2024-03-08T12:56:09;10.60;99.90
6106;DHT22;3083;51.508;7.966;2024-03-08T12:58:37;10.70;99.90
6106;DHT22;3083;51.508;7.966;2024-03-08T13:01:06;10.70;99.90
6106;DHT22;3083;51.508;7.966;2024-03-08T13:03:33;10.70;99.90
6106;DHT22;3083;51.508;7.966;2024-03-08T13:06:01;10.60;99.90
6106;DHT22;3083;51.508;7.966;2024-03-08T13:08:29;10.60;99.90
6106;DHT22;3083;51.508;7.966;2024-03-08T13:10:56;10.60;99.90
6106;DHT22;3083;51.508;7.966;2024-03-08T13:13:24;10.60;99.90
6106;DHT22;3083;51.508;7.966;2024-03-08T13:15:51;10.60;99.90
6106;DHT22;3083;51.508;7.966;2024-03-08T13:18:21;10.70;99.90
6106;DHT22;3083;51.508;7.966;2024-03-08T13:20:48;10.70;99.90
6106;DHT22;3083;51.508;7.966;2024-03-08T13:23:18;10.70;99.90
6106;DHT22;3083;51.508;7.966;2024-03-08T13:25:45;10.60;99.90
6106;DHT22;3083;51.508;7.966;2024-03-08T13:28:14;10.60;99.90
6106;DHT22;3083;51.508;7.966;2024-03-08T13:30:42;10.60;99.90
6106;DHT22;3083;51.508;7.966;2024-03-08T13:33:09;10.60;99.90
6106;DHT22;3083;51.508;7.966;2024-03-08T13:35:38;10.60;99.90
6106;DHT22;3083;51.508;7.966;2024-03-08T13:38:06;10.70;99.90
6106;DHT22;3083;51.508;7.966;2024-03-08T13:40:34;10.70;99.90
6106;DHT22;3083;51.508;7.966;2024-03-08T13:43:01;10.80;99.90
6106;DHT22;3083;51.508;7.966;2024-03-08T13:45:29;10.80;99.90
6106;DHT22;3083;51.508;7.966;2024-03-08T13:47:56;10.80;99.90
6106;DHT22;3083;51.508;7.966;2024-03-08T13:50:24;10.90;99.90
6106;DHT22;3083;51.508;7.966;2024-03-08T13:53:01;10.90;99.90
6106;DHT22;3083;51.508;7.966;2024-03-08T13:55:29;10.90;99.90
6106;DHT22;3083;51.508;7.966;2024-03-08T13:57:56;10.90;99.90
6106;DHT22;3083;51.508;7.966;2024-03-08T14:00:25;10.80;99.90
6106;DHT22;3083;51.508;7.966;2024-03-08T14:02:54;10.80;99.90
6106;DHT22;3083;51.508;7.966;2024-03-08T14:05:21;10.80;99.90
6106;DHT22;3083;51.508;7.966;2024-03-08T14:07:48;10.70;99.90
6106;DHT22;3083;51.508;7.966;2024-03-08T14:10:17;10.70;99.90
6106;DHT22;3083;51.508;7.966;2024-03-08T14:12:45;10.60;99.90
6106;DHT22;3083;51.508;7.966;2024-03-08T14:15:14;10.60;99.90
6106;DHT22;3083;51.508;7.966;2024-03-08T14:17:42;10.50;99.90
6106;DHT22;3083;51.508;7.966;2024-03-08T14:20:09;10.50;99.90
6106;DHT22;3083;51.508;7.966;2024-03-08T14:22:38;10.50;99.90
6106;DHT22;3083;51.508;7.966;2024-03-08T14:25:06;10.50;99.90
6106;DHT22;3083;51.508;7.966;2024-03-08T14:27:43;10.50;99.90
6106;DHT22;3083;51.508;7.966;2024-03-08T14:30:11;10.50;99.90
6106;DHT22;3083;51.508;7.966;2024-03-08T14:32:38;10.50;99.90
6106;DHT22;3083;51.508;7.966;2024-03-08T14:35:05;10.40;99.90
6106;DHT22;3083;51.508;7.966;2024-03-08T14:37:32;10.50;99.90
6106;DHT22;3083;51.508;7.966;2024-03-08T14:39:59;10.50;99.90
6106;DHT22;3083;51.508;7.966;2024-03-08T14:42:26;10.60;99.90
6106;DHT22;3083;51.508;7.966;2024-03-08T14:44:55;10.60;99.90
6106;DHT22;3083;51.508;7.966;2024-03-08T14:47:22;10.60;99.90
6106;DHT22;3083;51.508;7.966;2024-03-08T14:49:49;10.50;99.90
6106;DHT22;3083;51.508;7.966;2024-03-08T14:52:16;10.50;99.90
6106;DHT22;3083;51.508;7.966;2024-03-08T14:54:55;10.50;99.90
6106;DHT22;3083;51.508;7.966;2024-03-08T14:57:23;10.50;99.90
6106;DHT22;3083;51.508;7.966;2024-03-08T14:59:50;10.40;99.90
6106;DHT22;3083;51.508;7.966;2024-03-08T15:02:19;10.40;99.90
6106;DHT22;3083;51.508;7.966;2024-03-08T15:04:47;10.40;99.90
6106;DHT22;3083;51.508;7.966;2024-03-08T15:07:22;10.40;99.90
6106;DHT22;3083;51.508;7.966;2024-03-08T15:09:49;10.40;99.90
6106;DHT22;3083;51.508;7.966;2024-03-08T15:12:16;10.30;99.90
6106;DHT22;3083;51.508;7.966;2024-03-08T15:14:43;10.30;99.90
6106;DHT22;3083;51.508;7.966;2024-03-08T15:17:10;10.20;99.90
6106;DHT22;3083;51.508;7.966;2024-03-08T15:19:45;10.20;99.90
6106;DHT22;3083;51.508;7.966;2024-03-08T15:22:13;10.20;99.90
6106;DHT22;3083;51.508;7.966;2024-03-08T15:24:41;10.20;99.90
6106;DHT22;3083;51.508;7.966;2024-03-08T15:27:08;10.10;99.90
6106;DHT22;3083;51.508;7.966;2024-03-08T15:29:35;10.10;99.90
6106;DHT22;3083;51.508;7.966;2024-03-08T15:32:02;10.10;99.90
6106;DHT22;3083;51.508;7.966;2024-03-08T15:34:29;10.00;99.90
6106;DHT22;3083;51.508;7.966;2024-03-08T15:36:59;10.00;99.90
6106;DHT22;3083;51.508;7.966;2024-03-08T15:39:27;10.00;99.90
6106;DHT22;3083;51.508;7.966;2024-03-08T15:41:56;10.00;99.90
6106;DHT22;3083;51.508;7.966;2024-03-08T15:44:23;9.90;99.90
6106;DHT22;3083;51.508;7.966;2024-03-08T15:46:52;9.90;99.90
6106;DHT22;3083;51.508;7.966;2024-03-08T15:49:19;9.90;99.90
6106;DHT22;3083;51.508;7.966;2024-03-08T15:51:46;9.80;99.90
6106;DHT22;3083;51.508;7.966;2024-03-08T15:54:15;9.80;99.90
6106;DHT22;3083;51.508;7.966;2024-03-08T15:56:42;9.70;99.90
6106;DHT22;3083;51.508;7.966;2024-03-08T15:59:10;9.70;99.90
6106;DHT22;3083;51.508;7.966;2024-03-08T16:01:36;9.70;99.90
6106;DHT22;3083;51.508;7.966;2024-03-08T16:04:03;9.60;99.90
6106;DHT22;3083;51.508;7.966;2024-03-08T16:06:32;9.60;99.90
6106;DHT22;3083;51.508;7.966;2024-03-08T16:09:01;9.50;99.90
6106;DHT22;3083;51.508;7.966;2024-03-08T16:11:30;9.50;99.90
6106;DHT22;3083;51.508;7.966;2024-03-08T16:13:58;9.40;99.90
6106;DHT22;3083;51.508;7.966;2024-03-08T16:16:26;9.30;99.90
6106;DHT22;3083;51.508;7.966;2024-03-08T16:18:55;9.30;99.90